createdAt,value
2019-04-10T00:02:26.046Z,12.65
2019-04-10T00:04:57.864Z,12.59
2019-04-10T00:07:29.763Z,12.52
2019-04-10T00:10:03.472Z,12.51
2019-04-10T00:12:35.980Z,12.58
2019-04-10T00:15:09.283Z,12.53
2019-04-10T00:17:42.930Z,12.46
2019-04-10T00:20:16.270Z,12.41
2019-04-10T00:22:48.661Z,12.40
2019-04-10T00:25:20.939Z,12.41
2019-04-10T00:27:52.752Z,12.40
2019-04-10T00:30:25.062Z,12.41
2019-04-10T00:32:56.853Z,12.33
2019-04-10T00:35:29.718Z,12.11
2019-04-10T00:38:01.736Z,12.02
2019-04-10T00:40:33.465Z,12.02
2019-04-10T00:43:06.511Z,12.04
2019-04-10T00:45:38.458Z,12.04
2019-04-10T00:48:10.377Z,12.06
2019-04-10T00:50:42.515Z,12.04
2019-04-10T00:53:14.395Z,12.06
2019-04-10T00:55:46.195Z,12.05
2019-04-10T00:58:18.331Z,12.05
2019-04-10T01:00:50.449Z,12.01
2019-04-10T01:03:40.689Z,11.98
2019-04-10T01:06:14.279Z,11.95
2019-04-10T01:08:45.944Z,11.88
2019-04-10T01:11:18.990Z,11.87
2019-04-10T01:13:51.690Z,11.82
2019-04-10T01:16:23.571Z,11.76
2019-04-10T01:18:55.523Z,11.70
2019-04-10T01:21:28.447Z,11.70
2019-04-10T01:24:01.465Z,11.65
2019-04-10T01:26:33.255Z,11.68
2019-04-10T01:29:05.219Z,11.67
2019-04-10T01:31:37.289Z,11.71
2019-04-10T01:34:09.469Z,11.74
2019-04-10T01:36:41.480Z,11.74
2019-04-10T01:39:15.875Z,11.71
2019-04-10T01:41:48.059Z,11.69
2019-04-10T01:44:20.512Z,11.68
2019-04-10T01:46:52.958Z,11.69
2019-04-10T01:49:24.702Z,11.74
2019-04-10T01:51:57.429Z,11.75
2019-04-10T01:54:29.148Z,11.77
2019-04-10T01:57:00.853Z,11.72
2019-04-10T01:59:34.155Z,11.68
2019-04-10T02:02:07.500Z,11.63
2019-04-10T02:04:39.624Z,11.60
2019-04-10T02:07:11.617Z,11.56
2019-04-10T02:09:43.566Z,11.45
2019-04-10T02:12:16.660Z,11.40
2019-04-10T02:14:48.841Z,11.37
2019-04-10T02:17:20.647Z,11.34
2019-04-10T02:19:52.239Z,11.32
2019-04-10T02:22:24.924Z,11.30
2019-04-10T02:24:57.658Z,11.24
2019-04-10T02:27:30.109Z,11.25
2019-04-10T02:30:02.411Z,11.21
2019-04-10T02:32:34.543Z,11.15
2019-04-10T02:35:10.548Z,11.11
2019-04-10T02:37:41.729Z,11.11
2019-04-10T02:40:15.053Z,11.09
2019-04-10T02:42:47.444Z,11.09
2019-04-10T02:45:19.487Z,11.07
2019-04-10T02:47:52.772Z,11.08
2019-04-10T02:50:25.268Z,11.06
2019-04-10T02:52:59.061Z,11.05
2019-04-10T02:55:31.377Z,11.03
2019-04-10T02:58:03.146Z,11.02
2019-04-10T03:00:36.017Z,11.02
2019-04-10T03:03:09.351Z,10.98
2019-04-10T03:05:42.609Z,10.95
2019-04-10T03:08:15.812Z,10.89
2019-04-10T03:10:53.728Z,10.84
2019-04-10T03:13:21.856Z,10.79
2019-04-10T03:15:53.697Z,10.75
2019-04-10T03:18:25.904Z,10.69
2019-04-10T03:20:58.448Z,10.68
2019-04-10T03:23:31.625Z,10.66
2019-04-10T03:26:03.596Z,10.66
2019-04-10T03:28:35.546Z,10.66
2019-04-10T03:31:07.979Z,10.71
2019-04-10T03:33:47.444Z,10.70
2019-04-10T03:36:19.096Z,10.73
2019-04-10T03:38:58.554Z,10.74
2019-04-10T03:41:24.149Z,10.76
2019-04-10T03:43:56.405Z,10.78
2019-04-10T03:46:28.257Z,10.79
2019-04-10T03:49:01.154Z,10.79
2019-04-10T03:51:32.988Z,10.83
2019-04-10T03:54:04.990Z,10.92
2019-04-10T03:56:38.064Z,10.94
2019-04-10T03:59:09.796Z,10.99
2019-04-10T04:01:42.978Z,11.03
2019-04-10T04:04:17.514Z,11.12
2019-04-10T04:06:53.603Z,11.16
2019-04-10T04:09:29.381Z,11.24
2019-04-10T04:12:02.386Z,11.30
2019-04-10T04:14:34.688Z,11.33
2019-04-10T04:17:06.735Z,11.46
2019-04-10T04:19:38.389Z,11.49
2019-04-10T04:22:10.526Z,11.52
2019-04-10T04:24:42.355Z,11.58
2019-04-10T04:27:15.306Z,11.64
2019-04-10T04:29:47.529Z,11.74
2019-04-10T04:32:19.671Z,11.72
2019-04-10T04:34:52.166Z,11.75
2019-04-10T04:37:25.769Z,11.75
2019-04-10T04:39:58.355Z,11.77
2019-04-10T04:42:30.713Z,11.81
2019-04-10T04:45:03.087Z,11.85
2019-04-10T04:47:35.649Z,11.89
2019-04-10T04:50:07.779Z,11.95
2019-04-10T04:52:39.548Z,12.07
2019-04-10T04:55:12.233Z,12.11
2019-04-10T04:57:44.967Z,12.23
2019-04-10T05:00:17.452Z,12.35
2019-04-10T05:02:49.631Z,12.40
2019-04-10T05:05:21.494Z,12.49
2019-04-10T05:07:59.273Z,12.57
2019-04-10T05:10:26.559Z,12.62
2019-04-10T05:12:58.612Z,12.71
2019-04-10T05:15:31.094Z,12.76
2019-04-10T05:18:04.061Z,12.88
2019-04-10T05:20:44.226Z,12.96
2019-04-10T05:23:10.273Z,13.07
2019-04-10T05:25:42.008Z,13.20
2019-04-10T05:28:13.670Z,13.33
2019-04-10T05:30:45.522Z,13.45
2019-04-10T05:33:17.381Z,13.55
2019-04-10T05:35:49.351Z,13.72
2019-04-10T05:38:21.509Z,13.92
2019-04-10T05:40:53.171Z,14.01
2019-04-10T05:43:26.006Z,14.11
2019-04-10T05:45:57.601Z,14.30
2019-04-10T05:48:29.662Z,14.38
2019-04-10T05:51:05.635Z,14.56
2019-04-10T05:53:35.143Z,14.82
2019-04-10T05:56:07.090Z,15.04
2019-04-10T05:58:39.058Z,15.18
2019-04-10T06:01:11.543Z,15.25
2019-04-10T06:03:43.572Z,15.44
2019-04-10T06:06:15.156Z,15.58
2019-04-10T06:08:47.058Z,15.80
2019-04-10T06:11:18.865Z,16.05
2019-04-10T06:13:50.822Z,16.32
2019-04-10T06:16:22.479Z,16.45
2019-04-10T06:18:55.539Z,16.49
2019-04-10T06:21:28.482Z,16.58
2019-04-10T06:24:00.412Z,16.62
2019-04-10T06:26:32.721Z,16.86
2019-04-10T06:29:06.798Z,16.93
2019-04-10T06:31:39.074Z,17.04
2019-04-10T06:34:13.824Z,17.10
2019-04-10T06:36:44.434Z,17.27
2019-04-10T06:39:16.609Z,17.40
2019-04-10T06:41:48.781Z,17.48
2019-04-10T06:44:21.777Z,17.68
2019-04-10T06:46:54.975Z,17.91
2019-04-10T06:49:26.968Z,18.12
2019-04-10T06:51:59.686Z,18.31
2019-04-10T06:54:31.451Z,18.52
2019-04-10T06:57:03.089Z,18.64
2019-04-10T06:59:34.967Z,18.78
2019-04-10T07:02:17.707Z,19.01
2019-04-10T07:04:45.986Z,19.06
2019-04-10T07:07:18.122Z,19.18
2019-04-10T07:09:49.602Z,19.28
2019-04-10T07:12:24.405Z,19.39
2019-04-10T07:14:58.201Z,19.52
2019-04-10T07:17:29.439Z,19.56
2019-04-10T07:20:01.985Z,19.45
2019-04-10T07:22:33.669Z,19.45
2019-04-10T07:25:09.307Z,19.34
2019-04-10T07:27:41.458Z,19.28
2019-04-10T07:30:14.885Z,19.47
2019-04-10T07:32:49.012Z,19.73
2019-04-10T07:35:21.812Z,20.08
2019-04-10T07:37:56.682Z,20.30
2019-04-10T07:40:37.165Z,20.37
2019-04-10T07:43:09.069Z,20.58
2019-04-10T07:45:41.614Z,20.74
2019-04-10T07:48:13.358Z,21.02
2019-04-10T07:50:46.971Z,21.24
2019-04-10T07:53:18.939Z,21.52
2019-04-10T07:56:02.321Z,21.82
2019-04-10T07:58:24.076Z,21.98
2019-04-10T08:00:56.759Z,21.74
2019-04-10T08:03:28.848Z,21.38
2019-04-10T08:06:02.303Z,21.29
2019-04-10T08:08:34.131Z,21.08
2019-04-10T08:11:07.166Z,20.85
2019-04-10T08:13:38.841Z,20.78
2019-04-10T08:16:10.690Z,20.71
2019-04-10T08:18:43.474Z,20.81
2019-04-10T08:21:15.610Z,21.01
2019-04-10T08:23:48.508Z,21.29
2019-04-10T08:26:21.349Z,21.59
2019-04-10T08:28:53.792Z,21.74
2019-04-10T08:31:25.522Z,21.74
2019-04-10T08:33:57.178Z,21.92
2019-04-10T08:36:29.678Z,22.04
2019-04-10T08:39:02.421Z,22.29
2019-04-10T08:41:35.138Z,22.60
2019-04-10T08:44:06.811Z,22.87
2019-04-10T08:46:38.427Z,22.97
2019-04-10T08:49:10.281Z,23.01
2019-04-10T08:51:41.880Z,23.01
2019-04-10T08:54:14.104Z,23.17
2019-04-10T08:56:46.980Z,23.37
2019-04-10T08:59:19.315Z,23.56
2019-04-10T09:01:50.845Z,23.41
2019-04-10T09:04:22.463Z,23.28
2019-04-10T09:06:54.338Z,23.45
2019-04-10T09:09:26.187Z,23.63
2019-04-10T09:11:57.946Z,23.73
2019-04-10T09:14:29.883Z,23.64
2019-04-10T09:17:02.819Z,23.64
2019-04-10T09:19:34.663Z,23.78
2019-04-10T09:22:06.415Z,23.65
2019-04-10T09:24:38.393Z,23.77
2019-04-10T09:27:10.956Z,23.85
2019-04-10T09:29:42.906Z,23.96
2019-04-10T09:32:14.972Z,24.01
2019-04-10T09:34:48.122Z,24.10
2019-04-10T09:37:20.132Z,24.12
2019-04-10T09:39:53.445Z,24.15
2019-04-10T09:42:25.634Z,24.22
2019-04-10T09:44:57.475Z,24.23
2019-04-10T09:47:30.316Z,24.11
2019-04-10T09:50:02.409Z,24.13
2019-04-10T09:52:35.621Z,24.15
2019-04-10T09:55:08.106Z,24.39
2019-04-10T09:57:40.665Z,24.40
2019-04-10T10:00:14.032Z,24.20
2019-04-10T10:02:47.432Z,23.98
2019-04-10T10:05:20.258Z,23.74
2019-04-10T10:07:54.468Z,23.64
2019-04-10T10:10:25.839Z,23.52
2019-04-10T10:12:57.552Z,23.43
2019-04-10T10:15:29.389Z,23.34
2019-04-10T10:18:01.456Z,23.32
2019-04-10T10:20:35.614Z,23.43
2019-04-10T10:23:07.567Z,23.47
2019-04-10T10:25:39.467Z,23.52
2019-04-10T10:28:11.848Z,23.74
2019-04-10T10:30:43.998Z,24.09
2019-04-10T10:33:15.721Z,24.20
2019-04-10T10:35:49.503Z,24.23
2019-04-10T10:38:21.454Z,24.34
2019-04-10T10:40:53.109Z,24.56
2019-04-10T10:43:25.179Z,24.65
2019-04-10T10:45:56.940Z,24.86
2019-04-10T10:48:29.579Z,24.89
2019-04-10T10:51:02.427Z,24.76
2019-04-10T10:53:34.595Z,24.64
2019-04-10T10:56:06.438Z,24.75
2019-04-10T10:58:38.075Z,24.81
2019-04-10T11:01:09.972Z,24.89
2019-04-10T11:03:42.570Z,25.01
2019-04-10T11:06:14.966Z,24.89
2019-04-10T11:08:47.842Z,25.02
2019-04-10T11:11:20.034Z,24.93
2019-04-10T11:13:51.739Z,24.86
2019-04-10T11:16:23.554Z,24.83
2019-04-10T11:18:55.209Z,24.79
2019-04-10T11:21:27.452Z,24.67
2019-04-10T11:24:01.022Z,24.66
2019-04-10T11:26:33.646Z,24.57
2019-04-10T11:29:05.713Z,24.64
2019-04-10T11:31:39.609Z,24.60
2019-04-10T11:34:11.481Z,24.58
2019-04-10T11:36:44.055Z,24.49
2019-04-10T11:39:23.371Z,24.61
2019-04-10T11:41:50.559Z,24.51
2019-04-10T11:44:22.298Z,24.53
2019-04-10T11:46:55.641Z,24.41
2019-04-10T11:49:29.534Z,24.41
2019-04-10T11:52:03.111Z,24.31
2019-04-10T11:54:40.359Z,24.30
2019-04-10T11:57:09.948Z,24.32
2019-04-10T11:59:41.257Z,24.24
2019-04-10T12:02:14.426Z,24.20
2019-04-10T12:04:53.876Z,24.24
2019-04-10T12:07:52.639Z,24.27
2019-04-10T12:12:27.893Z,24.24
2019-04-10T12:15:01.582Z,24.31
2019-04-10T12:17:35.998Z,24.30
2019-04-10T12:20:08.956Z,24.35
2019-04-10T12:22:40.755Z,24.27
2019-04-10T12:25:12.940Z,24.29
2019-04-10T12:27:45.347Z,24.31
2019-04-10T12:30:17.713Z,24.42
2019-04-10T12:32:49.369Z,24.53
2019-04-10T12:35:20.931Z,24.62
2019-04-10T12:38:02.254Z,24.61
2019-04-10T12:40:26.669Z,24.39
2019-04-10T12:42:58.809Z,24.34
2019-04-10T12:45:30.799Z,24.24
2019-04-10T12:48:02.652Z,24.10
2019-04-10T12:50:34.526Z,24.06
2019-04-10T12:53:07.331Z,23.84
2019-04-10T12:55:38.973Z,23.73
2019-04-10T12:58:17.012Z,23.63
2019-04-10T13:00:44.822Z,23.57
2019-04-10T13:03:16.798Z,23.51
2019-04-10T13:05:49.395Z,23.43
2019-04-10T13:08:28.807Z,23.38
2019-04-10T13:10:56.082Z,23.35
2019-04-10T13:13:28.622Z,23.30
2019-04-10T13:16:01.484Z,23.23
2019-04-10T13:18:32.967Z,23.17
2019-04-10T13:21:04.510Z,23.15
2019-04-10T13:23:37.001Z,23.19
2019-04-10T13:26:10.895Z,23.18
2019-04-10T13:28:43.467Z,23.19
2019-04-10T13:31:15.134Z,23.10
2019-04-10T13:33:46.941Z,23.12
2019-04-10T13:36:19.674Z,23.03
2019-04-10T13:38:51.225Z,23.04
2019-04-10T13:41:24.105Z,22.95
2019-04-10T13:43:55.756Z,23.04
2019-04-10T13:46:28.941Z,22.99
2019-04-10T13:49:01.869Z,22.89
2019-04-10T13:51:33.438Z,22.88
2019-04-10T13:54:06.249Z,22.98
2019-04-10T13:56:38.025Z,22.97
2019-04-10T13:59:10.961Z,22.90
2019-04-10T14:01:43.888Z,22.88
2019-04-10T14:04:16.658Z,22.78
2019-04-10T14:06:49.302Z,22.77
2019-04-10T14:09:34.407Z,22.39
2019-04-10T14:11:54.435Z,21.99
2019-04-10T14:14:26.721Z,20.83
2019-04-10T14:16:59.324Z,20.59
2019-04-10T14:19:31.869Z,20.30
2019-04-10T14:22:03.500Z,20.18
2019-04-10T14:24:42.851Z,19.83
2019-04-10T14:27:16.266Z,19.50
2019-04-10T14:29:49.083Z,19.28
2019-04-10T14:32:25.371Z,19.15
2019-04-10T14:34:57.119Z,19.10
2019-04-10T14:37:29.551Z,19.13
2019-04-10T14:40:02.150Z,19.12
2019-04-10T14:42:34.895Z,19.08
2019-04-10T14:45:09.042Z,18.91
2019-04-10T14:47:41.323Z,18.62
2019-04-10T14:50:13.685Z,18.49
2019-04-10T14:52:45.770Z,18.03
2019-04-10T14:55:20.299Z,17.62
2019-04-10T14:57:51.028Z,17.14
2019-04-10T15:00:36.964Z,16.68
2019-04-10T15:03:08.772Z,16.68
2019-04-10T15:05:47.789Z,16.55
2019-04-10T15:08:15.505Z,16.47
2019-04-10T15:10:47.426Z,16.42
2019-04-10T15:13:21.236Z,16.41
2019-04-10T15:15:52.569Z,16.35
2019-04-10T15:18:24.664Z,16.38
2019-04-10T15:20:58.571Z,16.37
2019-04-10T15:23:30.233Z,16.42
2019-04-10T15:26:02.187Z,16.46
2019-04-10T15:28:34.028Z,16.44
2019-04-10T15:31:06.845Z,16.43
2019-04-10T15:33:39.415Z,16.47
2019-04-10T15:36:11.578Z,16.42
2019-04-10T15:38:44.262Z,16.48
2019-04-10T15:41:16.925Z,16.51
2019-04-10T15:43:50.159Z,16.63
2019-04-10T15:46:21.662Z,16.73
2019-04-10T15:48:53.423Z,16.60
2019-04-10T15:51:25.274Z,16.23
2019-04-10T15:53:57.125Z,15.88
2019-04-10T15:56:29.710Z,15.66
2019-04-10T15:59:01.370Z,15.45
2019-04-10T16:01:33.274Z,15.31
2019-04-10T16:04:05.271Z,15.23
2019-04-10T16:06:37.589Z,15.13
2019-04-10T16:09:10.445Z,15.08
2019-04-10T16:11:47.172Z,14.99
2019-04-10T16:14:23.304Z,14.90
2019-04-10T16:17:09.009Z,14.86
2019-04-10T16:19:51.367Z,14.80
2019-04-10T16:22:31.209Z,14.80
2019-04-10T16:25:05.355Z,14.73
2019-04-10T16:27:41.293Z,14.74
2019-04-10T16:30:15.960Z,14.76
2019-04-10T16:32:48.589Z,14.71
2019-04-10T16:35:21.084Z,14.68
2019-04-10T16:37:53.800Z,14.68
2019-04-10T16:40:26.957Z,14.72
2019-04-10T16:42:59.353Z,14.82
2019-04-10T16:45:31.196Z,14.89
2019-04-10T16:48:03.135Z,14.98
2019-04-10T16:50:36.400Z,15.08
2019-04-10T16:53:09.627Z,15.20
2019-04-10T16:55:43.113Z,15.26
2019-04-10T16:58:15.859Z,15.32
2019-04-10T17:00:47.749Z,15.35
2019-04-10T17:03:20.118Z,15.30
2019-04-10T17:05:53.550Z,15.39
2019-04-10T17:08:25.287Z,15.41
2019-04-10T17:10:58.808Z,15.42
2019-04-10T17:13:30.818Z,15.49
2019-04-10T17:16:02.593Z,15.53
2019-04-10T17:18:35.038Z,15.53
2019-04-10T17:21:06.788Z,15.57
2019-04-10T17:23:38.700Z,15.60
2019-04-10T17:26:10.798Z,15.62
2019-04-10T17:28:42.782Z,15.63
2019-04-10T17:31:16.138Z,15.67
2019-04-10T17:33:50.107Z,15.68
2019-04-10T17:36:22.962Z,15.71
2019-04-10T17:38:55.228Z,15.69
2019-04-10T17:41:28.277Z,15.68
2019-04-10T17:44:02.045Z,15.67
2019-04-10T17:46:33.628Z,15.69
2019-04-10T17:49:05.789Z,15.71
2019-04-10T17:51:38.467Z,15.74
2019-04-10T17:54:11.777Z,15.74
2019-04-10T17:56:44.408Z,15.72
2019-04-10T17:59:16.273Z,15.73
2019-04-10T18:01:47.906Z,15.74
2019-04-10T18:04:20.076Z,15.71
2019-04-10T18:06:52.867Z,15.73
2019-04-10T18:09:26.108Z,15.71
2019-04-10T18:12:00.549Z,15.71
2019-04-10T18:14:31.345Z,15.66
2019-04-10T18:17:03.101Z,15.61
2019-04-10T18:19:34.959Z,15.62
2019-04-10T18:22:06.805Z,15.60
2019-04-10T18:24:38.376Z,15.59
2019-04-10T18:27:12.250Z,15.57
2019-04-10T18:29:45.283Z,15.53
2019-04-10T18:32:17.920Z,15.51
2019-04-10T18:34:50.040Z,15.47
2019-04-10T18:37:24.834Z,15.50
2019-04-10T18:39:54.943Z,15.46
2019-04-10T18:42:26.750Z,15.45
2019-04-10T18:44:59.494Z,15.48
2019-04-10T18:47:32.308Z,15.45
2019-04-10T18:50:05.614Z,15.48
2019-04-10T18:52:37.492Z,15.46
2019-04-10T18:55:09.279Z,15.50
2019-04-10T18:57:41.122Z,15.48
2019-04-10T19:00:15.766Z,15.48
2019-04-10T19:02:57.077Z,15.45
2019-04-10T19:05:31.906Z,15.48
2019-04-10T19:08:03.640Z,15.48
2019-04-10T19:10:36.774Z,15.46
2019-04-10T19:13:09.564Z,15.48
2019-04-10T19:15:41.746Z,15.48
2019-04-10T19:18:13.539Z,15.44
2019-04-10T19:20:45.097Z,15.39
2019-04-10T19:23:17.265Z,15.43
2019-04-10T19:25:49.181Z,15.44
2019-04-10T19:28:30.017Z,15.42
2019-04-10T19:31:12.835Z,15.37
2019-04-10T19:33:39.420Z,15.25
2019-04-10T19:36:11.976Z,15.18
2019-04-10T19:38:43.682Z,15.09
2019-04-10T19:41:25.210Z,14.96
2019-04-10T19:43:48.742Z,14.89
2019-04-10T19:46:21.558Z,14.79
2019-04-10T19:48:53.606Z,14.75
2019-04-10T19:51:25.900Z,14.72
2019-04-10T19:53:57.818Z,14.63
2019-04-10T19:56:30.678Z,14.51
2019-04-10T19:59:02.930Z,14.50
2019-04-10T20:01:34.535Z,14.37
2019-04-10T20:04:06.471Z,14.32
2019-04-10T20:06:38.607Z,14.23
2019-04-10T20:09:10.697Z,14.28
2019-04-10T20:11:48.633Z,14.16
2019-04-10T20:14:16.843Z,14.20
2019-04-10T20:16:49.383Z,14.19
2019-04-10T20:19:21.066Z,14.19
2019-04-10T20:21:52.768Z,14.14
2019-04-10T20:24:25.068Z,14.05
2019-04-10T20:26:56.901Z,14.01
2019-04-10T20:29:28.894Z,13.92
2019-04-10T20:32:01.649Z,13.87
2019-04-10T20:34:33.696Z,13.91
2019-04-10T20:37:09.258Z,13.87
2019-04-10T20:39:39.219Z,13.89
2019-04-10T20:42:11.007Z,13.92
2019-04-10T20:44:43.065Z,13.92
2019-04-10T20:47:15.764Z,13.97
2019-04-10T20:49:47.935Z,13.99
2019-04-10T20:52:19.993Z,13.99
2019-04-10T20:54:51.762Z,13.98
2019-04-10T20:57:23.781Z,13.97
2019-04-10T20:59:55.685Z,14.00
2019-04-10T21:02:28.519Z,13.95
2019-04-10T21:05:05.787Z,13.98
2019-04-10T21:07:33.924Z,13.94
2019-04-10T21:10:08.548Z,13.92
2019-04-10T21:12:40.314Z,13.92
2019-04-10T21:15:13.190Z,14.01
2019-04-10T21:17:44.850Z,13.94
2019-04-10T21:20:16.717Z,13.96
2019-04-10T21:22:49.346Z,13.98
2019-04-10T21:25:21.219Z,13.91
2019-04-10T21:27:54.655Z,14.00
2019-04-10T21:30:31.759Z,13.99
2019-04-10T21:33:12.133Z,13.93
2019-04-10T21:35:44.157Z,13.88
2019-04-10T21:38:15.815Z,13.91
2019-04-10T21:40:47.566Z,13.91
2019-04-10T21:43:20.281Z,13.97
2019-04-10T21:45:53.024Z,14.00
2019-04-10T21:48:24.985Z,14.00
2019-04-10T21:50:56.847Z,13.97
2019-04-10T21:53:31.669Z,13.92
2019-04-10T21:56:02.308Z,13.94
2019-04-10T21:58:34.529Z,13.98
2019-04-10T22:01:08.076Z,13.98
2019-04-10T22:03:39.841Z,14.02
2019-04-10T22:06:15.685Z,13.99
2019-04-10T22:08:54.811Z,14.04
2019-04-10T22:11:26.786Z,14.07
2019-04-10T22:13:58.742Z,14.05
2019-04-10T22:16:30.701Z,14.07
2019-04-10T22:19:03.740Z,14.10
2019-04-10T22:21:35.549Z,14.05
2019-04-10T22:24:07.404Z,14.10
2019-04-10T22:26:44.471Z,14.10
2019-04-10T22:29:15.530Z,14.10
2019-04-10T22:31:47.596Z,14.07
2019-04-10T22:34:19.206Z,14.13
2019-04-10T22:36:50.800Z,14.04
2019-04-10T22:39:23.081Z,14.10
2019-04-10T22:41:54.846Z,14.11
2019-04-10T22:44:34.748Z,14.15
2019-04-10T22:47:00.885Z,14.15
2019-04-10T22:49:32.877Z,14.09
2019-04-10T22:52:04.740Z,14.08
2019-04-10T22:54:36.647Z,14.10
2019-04-10T22:57:10.370Z,14.06
2019-04-10T22:59:42.485Z,14.09
2019-04-10T23:02:16.087Z,14.10
2019-04-10T23:04:47.819Z,14.08
2019-04-10T23:07:19.878Z,14.02
2019-04-10T23:09:52.578Z,14.05
2019-04-10T23:12:24.481Z,13.95
2019-04-10T23:14:55.968Z,13.90
2019-04-10T23:17:28.539Z,13.91
2019-04-10T23:20:00.697Z,13.93
2019-04-10T23:22:33.494Z,13.95
2019-04-10T23:25:07.972Z,13.99
2019-04-10T23:27:39.928Z,14.02
2019-04-10T23:30:13.490Z,13.95
2019-04-10T23:32:45.794Z,14.04
2019-04-10T23:35:19.018Z,13.95
2019-04-10T23:37:51.097Z,13.93
2019-04-10T23:40:23.082Z,13.98
2019-04-10T23:43:05.808Z,13.96
2019-04-10T23:45:29.459Z,13.92
2019-04-10T23:48:01.448Z,13.83
2019-04-10T23:50:34.413Z,13.85
2019-04-10T23:53:06.553Z,13.78
2019-04-10T23:55:38.578Z,13.80
2019-04-10T23:58:10.637Z,13.74
